Putney, VT (05346)

5:54 PM EST on December 02, 2016 (GMT -0500)
Green Mountain Orchard | | Change Station

Elev 715 ft 42.99 °N, 72.54 °W | Updated 4 seconds ago

Partly Cloudy
Partly Cloudy
39.4 °F
Feels Like 36 °F
N
5.0
Wind Variable Wind from SW
Gusts 7.0 mph

Today
High -- | Low -- °F
--% Chance of Precip.
Yesterday
High -- | Low -- °F
Precip. -- in
Pressure 29.82 in
Visibility 10.0 miles
Clouds Few 8500 ft
Windchill 36 °F
Dew Point 35 °F
Humidity 83%
Rainfall 0.00 in
Snow Depth Not available.
7:03 AM 4:16 PM
Waxing Crescent, 11% visible
METAR KEEN 022156Z AUTO VRB03KT 10SM FEW085 06/M03 A2975 RMK AO2 SLP096 T00611028 PNO $
Pressure 29.82 in
Visibility 10.0 miles
Clouds Few 8500 ft
Windchill 36 °F
Dew Point 35 °F
Humidity 83%
Rainfall 0.00 in
Snow Depth Not available.
7:03 AM 4:16 PM
Waxing Crescent, 11% visible
METAR KEEN 022156Z AUTO VRB03KT 10SM FEW085 06/M03 A2975 RMK AO2 SLP096 T00611028 PNO $

10-Day Weather Forecast

Almanac

Astronomy

Dec. 02, 2016 Rise Set
Actual Time
Civil Twilight
Nautical Twilight
Astronomical Twilight
Moon
Length of Visible Light
Length of Day
Tomorrow will be .
, % of the Moon is Illuminated

Today's Extremes

State Highs State Lows

Community

WunderPhotos

Upload Photos

1,955,368 photos uploaded!

WunderBlog® & News

Nearby

Air Quality

  Air Quality AQ Index Pollutant
Not available.

Snow Depth

Station Depth Elevation

Earthquake Activity

City Distance Mag. Time & Date
Minimum magnitude displayed is 2.5.

Coastal Water Temperatures

Place Temperature

Stations

Nearby Weather Stations

Station Location Temp. Windchill Dew Point Humidity Wind Precip. Elev Updated Type
                   

Watches & Warnings

There are currently no watches in effect.